#nomeartistalast viewmanyedited
1Non c'è nessuno22-08-19 18:16182016-04-18
2Il fiume e il cavaliereClaudio Chieffo22-08-19 18:1616910-11-18
3Belle rose du printemps22-08-19 18:1529607-09-16
4La chacarera22-08-19 18:1533607-09-16
5Nous allons chantant22-08-19 18:1515126-06-18
6In ginocchio da te22-08-19 18:1520305-04-19
7El Cóndor Pasa - If I could 22-08-19 18:1512216-05-18
8Dell'Aurora Tu sorgi più Bella 22-08-19 18:11566407-09-16
9Salmo 8: o Signore, mio Dio22-08-19 18:11114907-09-16
10Purple Rain Prince22-08-19 18:1073601-03-19
11When the saints22-08-19 18:09940107-09-16
12Singing ya ya22-08-19 18:0924607-09-16
13Inno Vacanza 201622-08-19 18:0720017-08-17
14Ubi cáritas22-08-19 18:07112416-04-18
15Il nomeKarol Wojityla22-08-19 18:0689115-04-19
16Un bimbo sul leone 22-08-19 18:0416605-07-18
17Alla mattina 22-08-19 18:0321705-07-18
18Un ciodo 22-08-19 18:0278805-07-18
19Ave maris stella22-08-19 18:02264120-03-19
20Luntane, cchiù luntane22-08-19 18:02220317-04-18
21Al cjante il gjal22-08-19 18:0072107-09-16
22Rosa tra le rose22-08-19 18:0036907-09-16
23Gerusalemme, oh la mia gioia22-08-19 17:5983017-08-17
24Me compare Giacometo 22-08-19 17:5961305-07-18
25Benedetto sia lo giorno22-08-19 17:5945617-08-17
26Canti alla Madonna22-08-19 17:59135507-09-16
27The lord of the dance22-08-19 17:5932307-09-16
28Magnificat: Tu sei la luce..22-08-19 17:5969407-09-16
29Ora è tempo di gioiaGen Rosso22-08-19 17:5879704-05-18
30L'anima mia ha sete del Dio vivente22-08-19 17:58130007-09-16
31Andrò a vederla un dì 22-08-19 17:58203317-09-18
32Sul ponte di Bassano 22-08-19 17:57192405-07-18
33Cameree porta mez liter22-08-19 17:5741010-05-18
34Nella vecchia fattoria22-08-19 17:569310-05-19
35SanmatìoBepi De Marzi22-08-19 17:567110-05-19
36Vieux pélerin22-08-19 17:5627816-04-18
37Salve Regina22-08-19 17:5617217-08-17
38La luna nel rio22-08-19 17:5697707-09-16
39Foi Deus Amália Rodrigues22-08-19 17:5549505-02-19
40Adoramus(G.A.Perti)22-08-19 17:5545207-09-16
41VorreiFrancesco Guccini22-08-19 17:5437226-06-18
42Ma mìGiorgio Strehler22-08-19 17:542212-08-19
43Preghiera della sera Ti Adoro della sera22-08-19 17:5320107-09-16
44La Forza dell'AmoreEnzo Jannacci22-08-19 17:5322116-04-18
45La Muralla22-08-19 17:5336307-09-16
46Emmanuel 22-08-19 17:50178321-05-18
47Ave Maria - Stella del mattinoAdriana Mascagni22-08-19 17:4991603-08-19
48Quale gioia 22-08-19 17:4914621-05-18
49Home From Home Roo Panes22-08-19 17:48101424-01-19
50Tutor dicendo22-08-19 17:4843607-09-16
51Il Disegno22-08-19 17:47724117-08-17
52Ma non avere paura22-08-19 17:4616307-09-16
53Padre Perdona 22-08-19 17:45120005-02-19
54Carbonero22-08-19 17:4331617-08-17
55Canzone di BenedettoClaudio Chieffo22-08-19 17:4216610-11-18
56Shemà IsraelKiko Arguello22-08-19 17:40710321-05-18
57Somebody to love Queen22-08-19 17:3731428-01-19
58Re di gloria 22-08-19 17:35637711-05-18
59Quando uno ha il cuore buonoClaudio Chieffo22-08-19 17:3531110-11-18
60È l’ora che pia - Ave Maria di Lourdes 22-08-19 17:34199305-02-19
61Castagne Margherita Vicario22-08-19 17:3444409-02-19
62È l'ora che pia22-08-19 17:34521207-09-16
63Papaveri e papere 22-08-19 17:347818-01-19
64Da font de me anime22-08-19 17:3325425-06-19
65New Creation 22-08-19 17:32154026-02-19
66Go down Moses22-08-19 17:31102507-09-16
67Freedom22-08-19 17:31131707-09-16
68Seigneur où es-tu?22-08-19 17:3191516-04-18
69The wild rover22-08-19 17:3061207-09-16
70Allora saprete che esisto22-08-19 17:30116507-09-16
71Che sarà 22-08-19 17:3024810-04-19
72La Nave Nera22-08-19 17:30110910-05-18
73Zamba de Mi Esperanza22-08-19 17:3035607-09-16
74The Rose of Tralee22-08-19 17:3036317-04-18
75Lodate lodate22-08-19 17:2975717-08-17
76O mia bela Madunina 22-08-19 17:2997005-07-18
77E le stellette22-08-19 17:2918207-09-16
78Gustate e vedete22-08-19 17:2844417-08-17
79Il freno a manoClaudio Chieffo22-08-19 17:2818610-11-18
80Ballata dell'uomo vecchioClaudio Chieffo22-08-19 17:2636510-11-18
81I' te vurria vasà 22-08-19 17:24388928-05-18
82What's up4 Non Blondes22-08-19 17:2130628-05-19
83Col piè di porco22-08-19 17:2087620-04-18
84Una Strada InfinitaElodie22-08-19 17:184913-06-19
85Be still my heartJacqui Treco22-08-19 17:181376430-04-18
86La CompagniaLucio Battisti22-08-19 17:1750607-09-16
87Dieci ragazzeLucio Battisti22-08-19 17:1530616-08-19
88Hombres Nuevos22-08-19 17:1578222-05-18
89Ave donna santissima22-08-19 17:1433607-09-16
90La PreferenzaPaolo Amelio22-08-19 17:131645908-04-19
91Proud Mary 22-08-19 17:1331918-05-18
92Addio morettin ti lascio 22-08-19 17:1211308-02-19
93Campo verdeClaudio Chieffo22-08-19 17:1214810-11-18
94Il donoClaudio Chieffo22-08-19 17:1213510-11-18
95Canzone per teClaudio Chieffo22-08-19 17:1221210-11-18
96La ceseta de Transaqua 22-08-19 17:12160824-02-19
97Hotaru Koi22-08-19 17:1118720-04-18
98Canzone del melogranoClaudio Chieffo22-08-19 17:11238810-11-18
99Alto e Glorioso Dio 22-08-19 17:10149821-05-18
100L'illogica allegriaGiorgio Gaber22-08-19 17:1014216-08-19
101Compaña Hacia El Destino 22-08-19 17:1013401-03-19
102Pane del Cielo Gen Rosso22-08-19 17:0724505-02-19
103Trem BalaAna Vilela22-08-19 17:05144304-04-19
104Redemption Day 22-08-19 17:0526521-05-18
105Adoro Te Devote S. Tommaso d’Aquino22-08-19 17:0020014-02-19
106Banana Joe 22-08-19 17:0060306-07-18
107O Trinità infinitaTrappiste di Vitorchiano22-08-19 16:59117901-04-19
108Jesu tibi vivo22-08-19 16:5956717-08-17
109Victimae Paschali22-08-19 16:5954217-04-18
110La Marseillaise (Inno Nazionale Francese) 22-08-19 16:59197906-07-18
111Why me Lord 22-08-19 16:5947521-05-18
112Chi chi chi co co co Pippo Franco22-08-19 16:5711418-01-19
113Qui presso a Te22-08-19 16:5725817-08-17
114Ave Maria di Fatima 22-08-19 16:51139508-03-19
115Che siano una sola cosa22-08-19 16:50191217-08-17
116Pietà Signore22-08-19 16:4518116-04-18
117Paura di Niente 22-08-19 16:4418811-06-18
118Romaria22-08-19 16:38181817-08-17
119O PresepeClaudio Chieffo22-08-19 16:3634110-11-18
120Una carezza in un pugno 22-08-19 16:3520205-07-18
121Cara'l mè Toni22-08-19 16:3084607-09-16
122Grazie Prego Scusi 22-08-19 16:2923405-07-18
123Dulcis Christe22-08-19 16:2975907-09-16
124Ogni mia parola 22-08-19 16:2972621-05-18
125Povera voce22-08-19 16:28110022-05-19
126O Spes mea cara22-08-19 16:2876207-09-16
127Minha Festa22-08-19 16:2854007-09-16
128Sul ponte di Perati22-08-19 16:2728807-09-16
129In Comunione22-08-19 16:2777215-04-19
130Perfetta letizia - Forza Venite Gente22-08-19 16:2631907-01-19
131Te lucis ante terminum 22-08-19 16:2513901-03-19
132Stai lontana da me 22-08-19 16:2514105-07-18
133È Natale - Forza venite gente 22-08-19 16:2312706-01-19
134Mi prendi per la mano, o mio Gesù22-08-19 16:2298415-05-18
135Benedicti et llaudatiLaudario di Cortona22-08-19 16:205529-03-19
136Mani 22-08-19 16:14108527-11-18
137A canoa22-08-19 16:1444116-04-18
138I Saw the Light 22-08-19 16:1357218-05-18
139My Lord, what a morning 22-08-19 16:1260401-10-18
140Alleluia passeranno i cieli 22-08-19 16:12206121-05-18
141La Battaglia di Magenta 22-08-19 16:1039931-01-19
142Gli scariolanti22-08-19 16:1017807-09-16
143La Leggenda del Lupino 22-08-19 16:077231-01-19
144Io che non vivo senza te22-08-19 16:0625007-09-16
145Ho Visto Un ReEnzo Jannacci22-08-19 16:0627910-04-19
146Niño Dios22-08-19 16:0620616-04-18
147Blowin' in the Wind 22-08-19 16:0525105-06-18
148Our Father 22-08-19 16:0521225-02-19
149Can-zone (titolo originale Kan-zóne)22-08-19 16:0433531-10-18
150Voglio vivere così 22-08-19 16:0323105-07-18
151Pim Pam22-08-19 16:0332307-09-16
152Vivere senza malinconia22-08-19 16:0230610-04-19
153Abbi cura di me Simone Cristicchi22-08-19 16:0114714-02-19
154Luna Rossa 22-08-19 16:0112518-01-19
155We shall be free Garth Brooks22-08-19 15:5929209-11-18
156Inno alla beata Vergine di S.Luca22-08-19 15:59123907-09-16
157Piazza grande 22-08-19 15:5818728-06-18
158Se Tu m'accogli22-08-19 15:58135917-04-18
159Toda la vida22-08-19 15:58110117-08-17
160Quando gh'avevo talleri22-08-19 15:5849107-09-16
161Stasera - Aria di neve - Adriana Mascagni22-08-19 15:57137302-12-18
162Cambiar al Hombre22-08-19 15:57125217-08-17
163Le stoppie aride22-08-19 15:56171117-08-17
164Camminerò22-08-19 15:56326807-09-16
165Signor, Signore salvaci tu! - Salmo 12922-08-19 15:5524314-04-19
166Canti dell’Ordinario della Messa in lingua latina 22-08-19 15:558105-02-19
167Stanotte ragazzi - Forza Venite Gente22-08-19 15:5512107-01-19
168Deus creator omnium Sant’Ambrogio22-08-19 15:5318327-02-19
169Acqua azzurra, acqua chiaraLucio Battisti22-08-19 15:5335907-09-16
170Adoro te devote22-08-19 15:5346617-04-18
171El adios - Algo se muere en el alma22-08-19 15:5273107-09-16
172Alpini in Libia22-08-19 15:497125-07-19
173Fall on me Andrea Bocelli22-08-19 15:456607-02-19
174Vorrei la pelle nera22-08-19 15:4435617-08-17
175Salve Mater misericordiae22-08-19 15:4111912-06-19
176Starzinger 22-08-19 15:3814930-05-18
177Bella Istriana mia22-08-19 15:354820-05-19
178Resta accanto a me Gen Verde22-08-19 15:3533610-12-18
179Hineh ma tov (Salmo 133)22-08-19 15:3443102-05-18
180La rivista dell'armamento22-08-19 15:3169207-09-16
181Napule è22-08-19 15:3115816-04-18
182Ballata Per Maria 22-08-19 15:3010305-02-19
183Anime affaticate e sitibonde22-08-19 15:3082207-09-16
184Nobody knows the trouble I've seen22-08-19 15:3095216-04-18
185Benia CalastoriaBepi De Marzi22-08-19 15:2944007-09-16
186Lune la Fune 22-08-19 15:2961831-01-19
187Pon tus manos 22-08-19 15:2815823-01-19
188The Summer Day Mary Oliver22-08-19 15:2725822-01-19
189Negra Sombra 22-08-19 15:2621621-11-18
190El mar22-08-19 15:2533607-09-16
191O scarrafone 22-08-19 15:2318308-06-18
192Sia laudato San FrancescoLaudario di Cortona22-08-19 15:2113229-03-19
193Amazing Grace!22-08-19 15:21131016-04-18
194D'amor pane dolcissimo22-08-19 15:19163817-08-17
195Roma, nun fa’ la stupida stasera 22-08-19 15:1831705-07-18
196Ti ricordi la sera dei baci22-08-19 15:136405-04-19
197Faccia a facciaClaudio Chieffo22-08-19 15:0819410-11-18
198Come è grande22-08-19 15:0772417-08-17
199La montanara22-08-19 15:0422907-09-16
200Regina Coeli22-08-19 15:03308524-06-19
201Dal fondo del dolore22-08-19 15:0237126-06-18
202Monte Grappa22-08-19 15:028010-05-19
203Alleluia (semprini)22-08-19 15:0247107-09-16
204Il Tamburo della Banda d'Affori22-08-19 15:0149610-04-19
205Frasi sul Canto22-08-19 15:0172507-09-16
206O frondens VirgaHildegard von Bingen22-08-19 15:0132124-04-19
207Michael Row the Boat AshorePeter, Paul and Mary22-08-19 15:016404-06-19
208Minha luz 22-08-19 15:0034524-09-18
209Czarna Madonno 22-08-19 15:0018215-07-18
210Andiam verso il Signor22-08-19 15:0049907-09-16
211Napule èPino Daniele22-08-19 15:0023221-05-19
212Jesus knows 22-08-19 15:0033124-09-18
213Zio Caiman22-08-19 14:5950407-09-16
214Il popolo canta la sua liberazioneClaudio Chieffo22-08-19 14:5927810-11-18
215Il canto del mareMarco Frisina22-08-19 14:598312-05-19
216Magdalena degna da laudareLaudario di Cortona22-08-19 14:5923429-03-19
217Cantico dei tre fanciulli22-08-19 14:5972407-09-16
218Barco Negro 22-08-19 14:5935405-02-19
219L’UOMO CATTIVO22-08-19 14:5838707-09-16
220Troppo perde il tempo - originaleLaudario di Cortona22-08-19 14:5811927-03-19
221Rosario della Madonna del Carmine22-08-19 14:5880207-09-16
222Vola, vola, vola 22-08-19 14:5826205-07-18
223Lonesome Road22-08-19 14:5767707-09-16
224Mo ghile mear "our hero"22-08-19 14:5545607-09-16
225E tu Austria22-08-19 14:5446707-09-16
226Mi sei Scoppiato dentro al Cuore22-08-19 14:5420910-05-18
227Sevillanas del adios22-08-19 14:5428107-09-16
228I tuoi particolari Ultimo22-08-19 14:5319907-02-19
229Canzone di maggioClaudio Chieffo22-08-19 14:5318410-11-18
230Vecchio scarpone 22-08-19 14:5321409-07-18
231De la crudel morte del CristoLaudario di Cortona22-08-19 14:5236201-04-19
232GloriaClaudio Chieffo22-08-19 14:5124010-11-18
233Dove Sei 22-08-19 14:5119708-06-18
234E su la riva del mar 22-08-19 14:507822-11-18
235Campane22-08-19 14:5046707-09-16
236Vinassa, Vinassa22-08-19 14:4970719-04-18
237In the bleak midwinter 22-08-19 14:4683319-11-18
238Quand sona i campann22-08-19 14:4641210-05-18
239Attende Domine 22-08-19 14:4411614-02-19
240La tradotta 22-08-19 14:4436109-07-18
241La Ballata di Re Pipino 22-08-19 14:4316531-01-19
242Madonna de la grazia 22-08-19 14:4221405-07-18
243Edelweiss 22-08-19 14:41128506-07-18
244In the lightLed Zeppelin22-08-19 14:4026424-04-18
245Tanta voglia di lei 22-08-19 14:4022928-06-18
246La domenica andando a la messa 22-08-19 14:3814005-07-18
247All My Trials22-08-19 14:385228-04-19
248Servo Per Amore Gen Rosso22-08-19 14:3820425-11-18
249Haja o que houver22-08-19 14:3530817-08-17
250Father To Son Queen22-08-19 14:3514530-01-19
251Evviva Maria! 22-08-19 14:3559330-05-18
252Piccolo gregge22-08-19 14:3421907-09-16
253The things that I seeBay Ridge Band22-08-19 14:33176807-05-19
254Tu sei venuto dal buio22-08-19 14:3341120-06-19
255Todo Cambia 22-08-19 14:3227030-05-18
256Pesciolino Del Mar 22-08-19 14:3124630-01-19
257Torna maggio 22-08-19 14:3151605-07-18
258Il nostro cuore22-08-19 14:3142917-08-17
259FavolaClaudio Chieffo22-08-19 14:3143610-11-18
260Lela22-08-19 14:3131307-09-16
261Nazareth MorningBay Ridge Band22-08-19 14:29121816-05-18
262Venite a laudare Laudario di Cortona22-08-19 14:2814703-03-19
263Ventiquattro piedi siamo - Forza venite gente 22-08-19 14:2720006-01-19
264Cedit Frigus22-08-19 14:2632126-06-18
265Il ragazzo della via Gluck 22-08-19 14:2219805-07-18
266Su ali d'aquila22-08-19 14:21534307-09-16
267Un ciodo de fero vecio 22-08-19 14:1716631-01-19
268La Verità Elodie22-08-19 14:1312409-11-18
269Un bès in biciclèta22-08-19 14:1295116-04-18
270O filii et filiae22-08-19 14:11127920-04-18
271Nome dolcissimo 22-08-19 14:0650917-09-18
272El pueblo unido jamás será vencido 22-08-19 14:0625805-07-18
273Suonno 'e fantasia22-08-19 14:056205-04-19
274Passione (Te voglio, te penso, te chiammo) 22-08-19 14:0591025-05-18
275The foggy dew22-08-19 14:0559717-08-17
276Ciuri ciuri 22-08-19 14:0447105-07-18
277L'è tre ore che son chi soto22-08-19 14:0473416-04-18
278God Save the Queen (Inno nazionale del Regno Unito) 22-08-19 14:0326406-07-18
279Comme facette mammeta?22-08-19 14:0360807-09-16
280Joshua fit the battle of Jerico 22-08-19 14:0378416-05-18
281Altissima Luce22-08-19 14:0397817-04-18
282Stand up and shut it22-08-19 14:0312107-09-16
283Serenata a Castel Toblin22-08-19 14:0216507-09-16
284Troppo perde il tempoLaudario di Cortona22-08-19 14:02148227-03-19
285ojos de cielo22-08-19 14:02109717-08-17
286If I had a hammer 22-08-19 14:0220305-06-18
287Immacolata vergine bella 22-08-19 14:02115617-09-18
288My Father sings to me22-08-19 14:01173618-04-18
289Inno delle Scolte di Assisi22-08-19 14:0194407-09-16
290Gli AlberiCarlo Pastori22-08-19 14:01197717-08-17
291Shallow Lady Gaga22-08-19 14:0123916-11-18
292Deus ti salvet, Maria (Sardegna)22-08-19 14:00150107-09-16
293My song is love unknown22-08-19 13:5928307-09-16
294Canzone di Maria ChiaraClaudio Chieffo22-08-19 13:5928210-11-18
295Anna dai capelli rossi22-08-19 13:594508-05-19
296Venite cavalieri - Forza Venite Gente22-08-19 13:5914207-01-19
297Il blues del Giovane RiccoGiovanni Mosciatti22-08-19 13:5554503-06-19
298Wake Me UpAvicii22-08-19 13:545117-06-19
299Cantico della passione22-08-19 13:5427226-03-19
300Oh che bello 22-08-19 13:507030-01-19
301La gente e me 22-08-19 13:4827608-02-19
302Aprite le porte22-08-19 13:4738407-09-16
303Il Secchio la corda il pozzo22-08-19 13:4723917-08-17
304Caramba22-08-19 13:45101917-08-17
305Crux fidélis 22-08-19 13:4455721-12-18
306L'uva fogarina22-08-19 13:3543817-08-17
307Una vitaClaudio Chieffo22-08-19 13:3567410-11-18
308Se avessi mai commesso (S. Teresa di Gesù Bambino) 22-08-19 13:3599721-05-18
309O Sarracino22-08-19 13:3418407-09-16
310Nel primo chiarore del giorno22-08-19 13:3491410-04-18
311Street of the Bronx22-08-19 13:3225717-04-18
312Dubbi non ho 22-08-19 13:3230608-06-18
313Al Reggimento - A la matin bonura22-08-19 13:2939224-06-19
314Vieni, Signore Gesù 22-08-19 13:2819916-04-18
315Core ‘ngrato 22-08-19 13:2715005-07-18
316Fu luce la prima Parola22-08-19 13:2528707-09-16
317La bella Gigogin 22-08-19 13:2514630-05-18
318Silenzio cantatore22-08-19 13:2419809-04-19
319Will you still love me tomorrow?Amy Winehouse22-08-19 13:247420-05-19
320Quello che le donne non dicono 22-08-19 13:1825128-06-18
321Santa Lucia 22-08-19 13:189028-11-18
322Along the Jordan River22-08-19 13:15248626-03-19
323Per Te Signore 22-08-19 13:1512805-02-19
324Atto di Consacrazione 22-08-19 13:1317015-05-18
325O Croce santa esulta 22-08-19 13:127907-03-19
326Io credo: risorgero'22-08-19 13:1267607-09-16
327Qualcosa che non c'è22-08-19 13:1221607-09-16
328He gave her water 22-08-19 13:098711-03-19
329Bird on the wireLeonard Cohen22-08-19 13:0930624-05-19
330Vuestra soy22-08-19 13:08220016-08-19
331Al mattino22-08-19 13:08310407-09-16
332Lauda Sion Salvatore22-08-19 13:0661007-09-16
333L'Amistad22-08-19 13:0680324-05-18
334La sagra di Giarabub22-08-19 13:0536107-09-16
335A te, Signore, innalzo l'anima mia22-08-19 13:0443919-04-18
336Chi è costei 22-08-19 13:0411014-02-19
337Only our rivers run free22-08-19 13:0324507-09-16
338Ave Maria, splendore del mattinoClaudio Chieffo22-08-19 13:03222315-04-19
339Pick a bale of cotton 22-08-19 13:0310423-01-19
340Spirito Santo, dolce presenza22-08-19 13:024210-06-19
341Te lodiamo Trinità 22-08-19 13:02107417-09-18
342Cry no more 22-08-19 13:02142016-05-18
343Salelaka Mokonzi 22-08-19 13:0121023-01-19
344Caligaverunt oculi meiTomás Luis de Victoria22-08-19 13:01102222-05-19
345O quam amabilis22-08-19 13:01109007-09-16
346Laudar vollio per amoreLaudario di Cortona22-08-19 12:5924329-03-19
347Zi Nicola22-08-19 12:55461107-09-16
348Il semeClaudio Chieffo22-08-19 12:5417010-11-18
349A se di RumagnulSecondo Casadei22-08-19 12:545520-05-19
350The Virgin Mary22-08-19 12:5420317-04-18
351Tanto pe' cantà22-08-19 12:5353516-04-18
352La società dei magnaccioni 22-08-19 12:53127030-05-18
353Man mano che maturiamoLuigi Giussani22-08-19 12:521116-08-19
354Lascia che il mondo22-08-19 12:5268917-08-17
355Those Were The Days My Friend22-08-19 12:5129407-09-16
356Ti rallegra del cielo regina 22-08-19 12:5110917-09-18
357Mé bèla pütìna (Garota de Ipanema) 22-08-19 12:519804-12-18
358Moretto, moretto22-08-19 12:50619-08-19
359Stelutis alpinis22-08-19 12:4959306-05-19
360Witness22-08-19 12:4724417-08-17
361Messico e nuvole22-08-19 12:476810-04-19
362No Surrender22-08-19 12:4540716-04-18
363Quando la Tua Sapienza 22-08-19 12:4511228-12-18
364I want it all Queen22-08-19 12:4417828-01-19
365Ci sono anch'io88322-08-19 12:4430307-09-16
366Na bruna22-08-19 12:4391917-08-17
367ViaggiatoriPaolo Amelio22-08-19 12:4134017-08-17
368Stornelli Mugellani 22-08-19 12:3922531-01-19
369O dolcezza22-08-19 12:39152830-04-18
370La storia di serafino 22-08-19 12:3838905-07-18
371Ninna Nanna per Benedetta 22-08-19 12:3711631-01-19
372Onne homo ad alta voceLaudario di Cortona22-08-19 12:375823-03-19
373Errore di prospettiva - Quando noi vedremo tutto22-08-19 12:3639007-09-16
374El purtava i scarp de tennis Enzo Jannacci22-08-19 12:3631528-01-19
375Canzone degli occhi e del cuoreClaudio Chieffo22-08-19 12:3231310-11-18
376Il canto dei Sanfedisti 22-08-19 12:3127531-05-18
377Spirto gentil (la Favorita, Donizetti) 22-08-19 12:3148025-05-18
378Nel silenzio della notte Adriana Mascagni22-08-19 12:3114221-02-19
379Niño Lindo22-08-19 12:3152816-04-18
380Ho abbandonato22-08-19 12:3019917-08-17
381Sul Cappello22-08-19 12:30101913-04-18
382Antica eterna danza 22-08-19 12:3054911-05-18
383Se il Signore non costruisce la città22-08-19 12:3020716-04-18
384L'AquilaLucio Battisti22-08-19 12:3028007-09-16
385Canzone della Bassa22-08-19 12:30169007-09-16
386La BandaMina22-08-19 12:2930817-08-17
387Addio mia bella, addio 22-08-19 12:2922209-07-18
388Beato l'uomo - salmo 122-08-19 12:2939807-09-16
389Adoramus22-08-19 12:2925307-09-16
390Non Nobis22-08-19 12:2851317-08-17
391Ballata del tempo perdutoClaudio Chieffo22-08-19 12:2829110-11-18
392Breathe Pink Floyd22-08-19 12:2810816-01-19
393Romagna miaSecondo Casadei22-08-19 12:2827620-05-19
394La Pietra22-08-19 12:2834717-04-18
395Salmo 138, Dove andrò lontano dal tuo respiro22-08-19 12:2870016-04-18
396Salve Rociera22-08-19 12:2864411-06-18
397Aconteceu22-08-19 12:28377117-04-18
398Angelus Domini22-08-19 12:2616807-09-16
399Hoy arriesgarè22-08-19 12:25121503-05-18
400Pedro Pedreiro22-08-19 12:2416907-09-16
401Go, tell it on the mountain22-08-19 12:2041807-09-16
402Amo 22-08-19 12:1516910-12-18
403Oh! doux pays de ChanaanA.M. Cocagnac22-08-19 12:1422419-03-19
404L'assenzaFiorella Mannoia22-08-19 12:1330817-08-17
405Avanti, forza22-08-19 12:13114307-09-16
406Virgencita de Caacupé 22-08-19 12:1121824-09-18
407Il Signore è il mio Pastore 22-08-19 12:1047217-09-18
408Bridge Over Troubled Water 22-08-19 12:068221-02-19
409Gloria in cielo e pace in terra Laudario di Cortona22-08-19 12:0551607-09-16
410La samaritaine A.M. Cocagnac22-08-19 12:0413323-01-19
411Alla fiera di mastro Andrè 22-08-19 12:0449630-05-18
412La luna - Forza Venite Gente22-08-19 12:02114007-01-19
413I'll tell me ma22-08-19 12:0275202-04-19
414You've got a Friend 22-08-19 12:0232128-06-18
415La GileraClaudio Chieffo22-08-19 12:0220610-11-18
416Buongiorno tristezzaClaudio Villa22-08-19 12:028318-04-19
417Settle Down 22-08-19 12:0127705-06-18
418Il mistero22-08-19 12:0140117-08-17
419Ama Semplicemente 22-08-19 12:0022227-11-18
420Si Jamais J'oublieZAZ22-08-19 12:00268909-04-19
421Sorella morte - Forza Venite Gente22-08-19 12:0020507-01-19
422Eppur mi son scordato di te 22-08-19 12:007324-01-19
423Si va sulla montagna22-08-19 12:00240607-09-16
424Io vorrei... non vorrei... ma se vuoi22-08-19 12:0035919-04-18
425La mula de Parenzo22-08-19 11:5992107-09-16
426That Lonesome Road James Taylor22-08-19 11:5919418-02-19
427Head above water 22-08-19 11:5813603-10-18
428Prefiero el paraíso Hermana Clare Crockett22-08-19 11:5716007-02-19
429Vent fin 22-08-19 11:5761623-01-19
430Nitida Stella22-08-19 11:57203717-08-17
431La mia anima canta Gen Verde22-08-19 11:5628710-12-18
432Viva la Companì22-08-19 11:56103517-04-18
433Quanno nascette Ninno 22-08-19 11:5690113-11-18
434L'aurora risplende di luceTrappiste di Vitorchiano22-08-19 11:5540401-04-19
435There Is a Balm in Gilead22-08-19 11:546928-04-19
436LontanoClaudio Chieffo22-08-19 11:5412110-11-18
437Semplicità, sorella mia - Forza Venite Gente22-08-19 11:5418207-01-19
438La NotteArisa22-08-19 11:5267411-06-18
439Jerusalem - And did those feet in ancient time22-08-19 11:518620-03-19
440Gloria a Te, Cristo Gesù 22-08-19 11:5114705-02-19
441Alecrim22-08-19 11:5077417-08-17
442Laude novella sia cantata Laudario di Cortona22-08-19 11:4915203-03-19
443Ave verum22-08-19 11:4937407-09-16
444Madonnina degli aviatori22-08-19 11:464318-04-19
445Se l'amicizia fosse Adriana Mascagni22-08-19 11:457921-02-19
446La Tramontana 22-08-19 11:4410605-02-19
447Signore delle cime22-08-19 11:4322007-09-16
448Tota pulchra 22-08-19 11:438508-03-19
449I Misteri22-08-19 11:4318407-09-16
450La StradaClaudio Chieffo22-08-19 11:4228929-04-19
451Il canto della GioiaPaolo Amelio22-08-19 11:4214329-04-19
452Agnese dolce Agnese Ivan Graziani22-08-19 11:4112227-01-19
453What a Friend we have in Jesus 22-08-19 11:3922609-11-18
454O que é? O que é? 22-08-19 11:3914626-02-19
455Tu vuò fa' l'americano22-08-19 11:3815616-08-19
456Non c'è in Lui bellezza Kiko Arguello22-08-19 11:3721305-02-19
457Hold On22-08-19 11:3617723-04-19
458Era nato poveretto 22-08-19 11:3518405-07-18
459GS Cha Cha Cha22-08-19 11:34148407-09-16
460This Train (Bound for Glory) 22-08-19 11:3330205-06-18
461Inno dei Sommergibilisti 22-08-19 11:3225225-05-18
462L'iniziativaClaudio Chieffo22-08-19 11:3166710-11-18
463Leaning on the everlasting arms22-08-19 11:29318616-04-19
464Io vorrei... Non Vorrei... Ma se vuoi Lucio Battisti22-08-19 11:298705-03-19
465Con il nastro rosaLucio Battisti22-08-19 11:2935816-08-19
466Bella ciao22-08-19 11:297218-04-19
467Tu Francesco in Terrasanta - Forza Venite Gente22-08-19 11:2810707-01-19
468Something Just Like ThisColdplay22-08-19 11:2823111-06-18
469El esta aqui 22-08-19 11:2714301-03-19
470La lontananza 22-08-19 11:2715705-07-18
471Balada de caridade 22-08-19 11:2720723-01-19
472Non son sincera22-08-19 11:26128617-08-17
473Prima che sorga l'albaTrappiste di Vitorchiano22-08-19 11:2683601-04-19
474Attende Domine22-08-19 11:25116107-09-16
475La sposa di Gesù - Forza Venite Gente22-08-19 11:237607-01-19
476Canzone Del Piccolo Seme Marina Valmaggi22-08-19 11:219130-01-19
477Whiskey, You're The Devil (Irish)22-08-19 11:2127307-09-16
478Mariam MatremLlibre Vermell de Montserrat22-08-19 11:216712-06-19
479Canzone di San Giuseppe Adriana Mascagni22-08-19 11:2059203-03-19
480I Cieli narrano 22-08-19 11:1811728-12-18
481Sono come un soffio di vento22-08-19 11:1530407-09-16
482L’Uccellino Quando Imbruna 22-08-19 11:1411031-01-19
483La Tana del Re22-08-19 11:1324110-05-18
484Splendor paternae gloriae Sant’Ambrogio22-08-19 11:1222027-02-19
485We Are The Champions Queen22-08-19 11:1011428-01-19
486Feeling Good 22-08-19 11:0930501-03-19
487Land of the LivingRoo Panes22-08-19 11:067321-05-19
488cow boy Piero22-08-19 11:0525317-08-17
489Mater’ neba i zemli22-08-19 11:0125424-09-18
490I'm a believer 22-08-19 11:0019928-06-18
491Christe Cunctorum22-08-19 10:59105317-05-18
492Quant'è dolce o Salvatore22-08-19 10:59166816-04-18
493La strada ferrata 22-08-19 10:5895028-05-18
494Dust in the WindKansas22-08-19 10:557923-05-19
495Et incarnatus est22-08-19 10:5359307-09-16
496Un bacio a mezzanotte22-08-19 10:4916510-05-18
497La Carovana 22-08-19 10:497630-01-19
498La notte che ho visto le stelleClaudio Chieffo22-08-19 10:47124510-11-18
499La santa allegrezza 22-08-19 10:4661705-07-18
500Valderì22-08-19 10:4424510-05-19
501La ragazza stranaClaudio Chieffo22-08-19 10:4314710-11-18
502Reginella22-08-19 10:4321107-09-16
503Ora so22-08-19 10:4122807-09-16
504Cantico delle creature 22-08-19 10:4039720-02-19
505Dies Irae 22-08-19 10:3810706-03-19
506My love is like a red, red rose22-08-19 10:344905-06-19
507La famiglia dei gobbi 22-08-19 10:34213630-05-18
508Sono solo canzonette22-08-19 10:3417107-09-16
509Heart Of Gold 22-08-19 10:3324329-05-18
510Both sides the Tweed 22-08-19 10:3360925-02-19
511L'Opera22-08-19 10:3217207-09-16
512Marechiare22-08-19 10:3178909-04-19
513Grazie Signore22-08-19 10:3173907-09-16
514Sempre cantiamo al rifiorir del giorno22-08-19 10:3037407-09-16
515Venite fedeli22-08-19 10:28339207-09-16
516Sweet Caroline 22-08-19 10:289521-02-19
517E piansero i lupi nel bosco - Forza Venite Gente22-08-19 10:2713207-01-19
518Vacanze romane Mattia Bazar22-08-19 10:278705-02-19
519Spirit in the Sky 22-08-19 10:2636830-05-18
520Bocca di rosa (F. De André)22-08-19 10:2228507-09-16
521Inno Grifondoro22-08-19 10:2216317-08-17
522La vegiazza22-08-19 10:2120207-09-16
523Mia forza e mio canto22-08-19 10:2042007-09-16
524Allo zoo 22-08-19 10:2015830-05-18
525La pipaClaudio Chieffo22-08-19 10:199910-11-18
526Pregherò 22-08-19 10:1914705-07-18
527Cara mama, mi vôi Toni22-08-19 10:19716-08-19
528Caruso 22-08-19 10:1618630-05-18
529La VeritàElodie22-08-19 10:165413-06-19
530Salmo 125: Chi semina nel pianto22-08-19 10:1434607-09-16
531StradeClaudio Chieffo22-08-19 10:1315310-11-18
532We can do better 22-08-19 10:0611328-01-19
533Little Giant Roo Panes22-08-19 10:0541509-02-19
534Io ti offro22-08-19 10:0323107-09-16
535Il paradiso della vita 22-08-19 10:0313606-07-18
536Amen22-08-19 10:0216407-09-16
537Quant'è dolce, o Re del cielo22-08-19 10:0153016-04-18
538E volare volare - Forza Venite Gente22-08-19 10:0116907-01-19
539The fields of Athenry 22-08-19 10:0118123-01-19
540O Sole mio!22-08-19 09:5221507-09-16
541L'angelo biondo - Forza Venite Gente22-08-19 09:4319307-01-19
542L'è ben ver che mi slontani22-08-19 09:417510-05-19
543O nosso general é Cristo22-08-19 09:386821-03-19
544Vergine Madre, Figlia del tuo Figlio - Canto XXXIIIDante Alighieri22-08-19 09:3784604-04-19
545La povertà - Forza Venite Gente22-08-19 09:3624407-01-19
546If I had my way 22-08-19 09:3529405-06-18
547Je vole 22-08-19 09:3428106-11-18
548Amare ancora22-08-19 09:3227807-09-16
549Toitela ti22-08-19 09:29115907-09-16
550Io ho in mente teEquipe 8422-08-19 09:2931807-09-16
551La Pastora22-08-19 09:2814413-04-18
552Vento22-08-19 09:2726107-09-16
553Virgen del Rocío 22-08-19 09:218607-02-19
554Era de maggio22-08-19 09:2018909-04-19
555Preghiera a Maria - Semprini22-08-19 09:2061207-09-16
556Garibaldi fu ferito22-08-19 09:1628518-04-19
557Vere languores nostros Antonio Lotti22-08-19 09:1612718-02-19
558Luce - Tramonti A Nord EstElisa22-08-19 09:1519108-04-19
559Reina de la PazClaudio Chieffo22-08-19 09:1420210-11-18
560Tu sei un Dio fedele22-08-19 09:04113117-08-17
561Che sia benedetta22-08-19 09:0314623-04-18
562Laudato sii 22-08-19 09:0126220-02-19
563Salutiam divotamenteLaudario di Cortona22-08-19 08:445729-03-19
564Pigliate ‘na pastiglia 22-08-19 08:3320805-07-18
565A Gramadora22-08-19 08:2943707-09-16
566O Cristo redentore 22-08-19 08:2713907-03-19
567Viva la campagna22-08-19 08:1743407-09-16
568Popule meus 22-08-19 08:1632718-02-19
569Dic Maria 22-08-19 08:136718-02-19
570Rallegrati, Gerusalemme22-08-19 08:0722407-09-16
571A quien debo yo llamar 22-08-19 08:0343224-09-18
572Canzone per te - Endrigo 22-08-19 08:027705-02-19
573Bersagliere ha cento penne22-08-19 07:53714-08-19
574Alleria Pino Daniele22-08-19 07:4664428-11-18
575Senza Te Sacra Regina22-08-19 07:4557307-09-16
576In un giorno di pioggia Modena City Ramblers22-08-19 07:3911218-02-19
577Povero vecchio diavolo - Forza Venite Gente22-08-19 07:3716907-01-19
578Non si va in cielo 22-08-19 07:3615531-01-19
579Torna a Surriento22-08-19 07:3516207-09-16
580Spirito sancto, dà servireLaudario di Cortona22-08-19 07:324527-03-19
581Ad Mortem FestinamusLlibre Vermell de Montserrat22-08-19 07:295612-06-19
582Placido 22-08-19 07:2827330-01-19
583Dai piani Lombardi - Ave Maria del Piratello Imola 22-08-19 07:2411517-02-19
584Vedrò la bontà del Signore22-08-19 07:0536416-04-18
585Hurt 22-08-19 07:0024811-06-18
586Ti salutiamo, o Vergine 22-08-19 06:5618017-09-18
587Salvami! 22-08-19 06:5013928-05-18
588Manto de açucenas 22-08-19 06:5036624-09-18
589Canti di Taizè J. Berthier22-08-19 06:5020705-02-19
590With the wind in the willow22-08-19 06:4426618-04-18
591E la banda suonerà22-08-19 06:4414631-10-18
592Le quattro volteBrunori Sas22-08-19 06:444925-07-19
593Magnificat: L'anima mia magnifica..22-08-19 06:4355507-09-16
594Lettera Francesco Guccini22-08-19 06:3821209-11-18
595IncompleteAlanis Morissette22-08-19 06:3716511-06-18
596Era bella come gli orienti 22-08-19 06:368008-02-19
597O magne Pater22-08-19 06:3515907-09-16
598Il mio volto22-08-19 06:3441421-05-19
599Jetta la riti 22-08-19 06:3344930-05-18
600Razón de vivir 22-08-19 06:2129723-01-19
601Cristo risusciti22-08-19 06:2085807-09-16
602Sem Medo Toquinho e Vinícius22-08-19 06:1913008-02-19
603O Salutaris Hostia S. Tommaso d’Aquino22-08-19 06:1724005-02-19
604Estote fortes 22-08-19 06:1520718-02-19
605We shall overcome 22-08-19 06:1264230-05-18
606Narrano i cieli - Salmo 18a22-08-19 06:0873617-08-17
607Chant de penitence A.M. Cocagnac22-08-19 06:0530319-03-19
608la LibertadAlvaro Soler22-08-19 05:586914-05-19
609Spazzacamino22-08-19 05:5530507-09-16
610Tu, ca nun chiagne!22-08-19 05:5225107-09-16
611E c’era un grillo 22-08-19 05:5122931-01-19
612La guerraClaudio Chieffo22-08-19 05:4719110-11-18
613Este el dia del Senor 22-08-19 05:4613723-01-19
614Man mano che cammino22-08-19 05:4416307-09-16
615Non avere pauraClaudio Chieffo22-08-19 05:4326110-11-18
616GeneraleF.De Gregori22-08-19 05:3819004-04-19
617Ammazziamoli - Forza Venite Gente22-08-19 05:3810007-01-19
618Annuncio - Quel che era fin da principio22-08-19 05:3762807-09-16
619Don't Think Twice, It's All Right 22-08-19 05:3721105-06-18
620Rossa Sera 22-08-19 05:3325313-11-18
621Lode al nome tuo 22-08-19 05:32271111-05-18
622Mary did you know?22-08-19 05:3132507-09-16
623In vacanza da una vitaIrene Grandi22-08-19 05:318110-04-19
624Jesù! Rex admirabilis22-08-19 05:31328816-04-18
625Rimmel (F.De Gregori)22-08-19 05:2417407-09-16
626In my defence Freddie Mercury22-08-19 05:1333728-01-19
627Danny Boy 22-08-19 05:1113722-02-19
628Pasacalles22-08-19 05:1054817-08-17
629Ain't That Good News22-08-19 05:075528-04-19
630Noi non sappiamo chi era22-08-19 05:0530117-08-17
631Ballata Per 4 Stagioni Ivan Graziani22-08-19 05:007527-01-19
632Minu kùntali22-08-19 04:5716416-04-18
633Nella Tua Pace22-08-19 04:4574907-09-16
634María, Madre del camino ardiente Kiko Arguello22-08-19 04:398005-02-19
635FarewellFrancesco Guccini22-08-19 04:3420813-04-19
636Ma perché22-08-19 04:3227131-10-18
637Fiamme Nere (il canto degli Arditi) 22-08-19 04:3114720-11-18
638O Virgo SplendensLlibre Vermell de Montserrat22-08-19 04:304012-06-19
639Stella SplendensLlibre Vermell de Montserrat22-08-19 04:2310812-06-19
640E col cifolo del vapore22-08-19 04:2027712-01-18
641Sois la prometida 22-08-19 04:1822424-09-18
642Il lupo - Forza Venite Gente22-08-19 04:1823807-01-19
643Alto e glorioso Dio22-08-19 04:1826007-09-16
644Fischia il vento22-08-19 04:09719-08-19
645Sicilia bedda 22-08-19 04:0244630-05-18
646I fiumiClaudio Chieffo22-08-19 03:5613110-11-18
647Tenebrae factae sunt 22-08-19 03:5043821-12-18
648La coppia più bella del mondo 22-08-19 03:4216005-07-18
649Nobody knowsThe Lumineers22-08-19 03:3311421-08-19
650Dilecto Jhesu Cristo22-08-19 03:2512307-09-16
651Lo ShampooGiorgio Gaber22-08-19 03:2320521-05-19
652Sui monti Scarpazi22-08-19 03:2320402-05-18
653L’emozione non ha voce 22-08-19 03:2225605-07-18
654Pensiero 22-08-19 03:0620428-06-18
655AppassiunèdaSecondo Casadei22-08-19 02:594320-05-19
656Interna sete ardente22-08-19 02:5332107-09-16
657La Santa Caterina 22-08-19 02:4815630-05-18
658Couronnée d'étoiles22-08-19 02:479616-04-19
659Avrei voluto essere una bandaClaudio Chieffo22-08-19 02:4425910-11-18
660Suspir da l'anime22-08-19 02:419424-06-19
661Adoriamo il Sacramento 22-08-19 02:4075714-02-19
662Tristis est anima mea 22-08-19 02:3543718-02-19
663L’alto prenze archangelo lucenteLaudario di Cortona22-08-19 02:305029-03-19
664Ave Maria di T. Luis da Victoria22-08-19 02:3026207-09-16
665Agoblues22-08-19 02:2817907-09-16
666Riu riu chiu22-08-19 02:28106307-09-16
667Timoneiro 22-08-19 02:2826306-07-18
668Ave Dei genitrix Laudario di Cortona22-08-19 02:186003-03-19
669Mandulinata a Napule 22-08-19 02:0361625-05-18
670Quanta sete nel mio cuore 22-08-19 01:5813920-07-18
671What Can I SayBrandi Carlile22-08-19 01:5431817-06-19
672Come ti chiami tu22-08-19 01:50130607-09-16
673Lieta armonia 22-08-19 01:4111417-09-18
674In notte placida22-08-19 01:4134907-09-16
675Oggi è nato in una stalla22-08-19 01:3218413-04-18
676Christo è nato et humanatoLaudario di Cortona22-08-19 01:315623-03-19
677O surdato 'nnammurato22-08-19 01:1922807-09-16
678Egli è il tuo bon Jesù22-08-19 01:1521516-04-19
679Alta trinità beataLaudario di Cortona22-08-19 01:0215827-03-19
680Down by the riverside22-08-19 00:5889707-09-16
681Op enen Kerstnacht 22-08-19 00:586907-12-18
682Vamos Pastores Vamos22-08-19 00:4241607-09-16
683Guantanamera22-08-19 00:3921703-04-19
684How I got over22-08-19 00:2318510-11-18
685Aeterne rerum conditor - Ad Galli Cantum Sant’Ambrogio22-08-19 00:2338227-02-19
686Sou feliz Senhor22-08-19 00:1989526-04-18
687Volevo scriverti da tanto22-08-19 00:1621119-04-18
688Cantate al Signore un inno nuovo22-08-19 00:15103607-09-16
689Christus vincit 22-08-19 00:1525030-05-18
690Go Rest High on That MountainVince Gill22-08-19 00:036909-04-19
691Chanson de l'AngeClaudio Chieffo21-08-19 23:5612810-11-18
692Como busca21-08-19 23:5029707-09-16
693Je vous salue Marie21-08-19 23:464016-04-19
694Monte Pasubio 21-08-19 23:4041605-07-18
695Ognun m'entenda21-08-19 23:3730707-09-16
696Inni e canti 21-08-19 23:3020017-09-18
697Il desiderio21-08-19 23:2215407-09-16
698Seigneur, Mon Ami p.Aimé Duval21-08-19 23:1510331-01-19
699Ti adoriamo 21-08-19 23:107507-03-19
70029 SettembreLucio Battisti21-08-19 22:5227516-08-19
701Anima Christi 21-08-19 22:4927314-02-19
702Monologo di GiudaClaudio Chieffo21-08-19 22:4820210-11-18
703La smortina21-08-19 22:435216-05-19
704Come porti i capelli 21-08-19 22:3015305-07-18
705Sul pajon21-08-19 22:12163907-09-16
706Nenia di Gesù Bambino21-08-19 22:0711613-04-18
707Jesus met the woman (The Woman at the Well)21-08-19 22:0016817-04-18
708A noi Signore - Salmo 5621-08-19 21:5884707-09-16
709A Elisabetta Stefano Pianori21-08-19 21:5823330-01-19
710A banda21-08-19 21:5855507-09-16
711La parola del Signore è verità21-08-19 21:5539116-04-18
712Il gatto e la volpeEdoardo Bennato21-08-19 21:5116207-09-16
713Occhio, cuore, cervello21-08-19 21:4915107-09-16
714La Visaille21-08-19 21:4729920-06-19
715CapitanoClaudio Chieffo21-08-19 21:4717110-11-18
716Quando busserò 21-08-19 21:4612329-05-18
717Maria di Guadalupe 21-08-19 21:4610130-01-19
718J’irai A.M. Cocagnac21-08-19 21:446223-01-19
719Bombardano Cortina21-08-19 21:3617307-09-16
720Liberazione n. 2Claudio Chieffo21-08-19 21:3441010-11-18
721Le fils prodigue A.M. Cocagnac21-08-19 21:256223-01-19
722A vucchellaGabriele D'Annunzio21-08-19 21:2317909-04-19
723La Pastora e il Lupo 21-08-19 21:2047130-05-18
724E dirsi ciao Mattia Bazar21-08-19 21:157605-02-19
725Maria, d'omelia se' fontana Laudario di Cortona21-08-19 21:086503-03-19
726Ring Of Fire 21-08-19 20:5727105-06-18
727Cockles and Mussels21-08-19 20:5539907-09-16
728John Brown 21-08-19 20:549827-11-18
729Vergin Santa21-08-19 20:5313407-09-16
730Los Reyes Magos21-08-19 20:5149507-09-16
731Ovunque Proteggi 21-08-19 20:5043011-06-18
732Amatevi Fratelli 21-08-19 20:436214-02-19
733L'isola di Wight 21-08-19 20:3712628-06-18
734Ma che vacanza è? - Inno Vacanza 201921-08-19 20:377217-06-19
735Hai dato un cibo a noi Signore 21-08-19 20:3514214-11-18
736Montagne Verdi 21-08-19 20:3022128-06-18
737Il ritorno 21-08-19 20:3013409-07-18
738I Wonder21-08-19 20:2540907-09-16
739Personalità21-08-19 20:2312010-05-18
740Christo al morir tendea21-08-19 20:1893122-03-19
741Taglia la testa al gallo Ivan Graziani21-08-19 20:177327-01-19
742Come Maria 21-08-19 20:159308-03-19
743SognoClaudio Chieffo21-08-19 20:1414610-11-18
744Stabat Mater 21-08-19 20:0233915-05-18
745Luce di Verità21-08-19 20:013610-06-19
746Spiritu Sancto gloriosoLaudario di Cortona21-08-19 19:575227-03-19
747Symbolum 77 - Tu sei la mia vitaPierangelo Sequeri21-08-19 19:547822-05-19
748Buona Sera Signorina 21-08-19 19:5322305-07-18
749Out Of His Great Love21-08-19 19:5332617-08-17
750Voi ch'amate lo Criatore21-08-19 19:5129917-08-17
751Dal ciel venne messo novello Laudario di Cortona21-08-19 19:457003-03-19
752Ma viele21-08-19 19:4325307-09-16
753Alice (F. De Gregori)21-08-19 19:4021007-09-16
754Il canto di Tom BombadillJohn Ronald Reuel Tolkien21-08-19 19:365210-05-19
755Alla tua Anima Adriana Mascagni21-08-19 19:326921-02-19
756Omni die dic Mariae21-08-19 19:309512-06-19
757Il Tempo di Morire 21-08-19 19:2627921-05-18
758Sbagliato Jovanotti21-08-19 19:258215-03-19
759Cristo Gesù è Il Signore - Inno Della Kenosis 21-08-19 19:2011305-02-19
760The Star-Spangled Banner (Inno nazionale USA) 21-08-19 19:1417406-07-18
761Symbolum 80 - Oltre la memoriaPierangelo Sequeri21-08-19 19:067422-05-19
762Vuestra soy para vos nací21-08-19 18:5748416-08-19
763Dal sangue dell'Agnello riscattatiTrappiste di Vitorchiano21-08-19 18:4845301-04-19
764Alvorada21-08-19 18:4518407-09-16
765Peccatrice nominata Laudario di Cortona21-08-19 18:455904-03-19
766Oca la foca 21-08-19 18:2810330-01-19
767Tu sì ‘na cosa grande 21-08-19 18:2619005-07-18
768Vengo, Signore21-08-19 18:2531807-09-16
769Angelus21-08-19 18:2451307-09-16
770Le carrozze 21-08-19 18:2414409-07-18
771I miei capelli - Forza Venite Gente21-08-19 18:2422407-01-19
772No es monotonía Hermana Clare Crockett21-08-19 18:2410107-02-19
773Maranathà21-08-19 18:2315916-04-18
774Canzone del DestinoClaudio Chieffo21-08-19 18:1816110-11-18
775Il mio canto liberoLucio Battisti21-08-19 18:1424407-09-16
776Alma Redemptoris21-08-19 18:1131307-09-16
777Uma casa portuguesa 21-08-19 18:0621230-05-18
778O Spirito Paraclito21-08-19 18:0526007-09-16
779Al tuo santo altar 21-08-19 17:5748917-09-18
780Subacta cedunt tartara 21-08-19 17:518501-03-19
781O côr soave21-08-19 17:5025816-04-18
782A la ClartèManoscritto di Montpellier21-08-19 17:504617-06-19
783La Mente Torna21-08-19 17:4228707-09-16
784Adios21-08-19 17:4218907-09-16
785Destinazione paradiso 21-08-19 17:2418228-06-18
786Questo folle sentimento 21-08-19 17:209131-01-19
787In questa notte splendidaClaudio Chieffo21-08-19 17:1525010-11-18
788Bambino nella culla21-08-19 17:015313-05-19
789Ballata dell'amore veroClaudio Chieffo21-08-19 16:5925910-11-18
790La traccia21-08-19 16:5048707-09-16
791Shemà 21-08-19 16:4720721-05-18
792Nossa Senhora, mãe de Jesus 21-08-19 16:4748824-09-18
793Come la rosaClaudio Chieffo21-08-19 16:4416710-11-18
794PadreClaudio Chieffo21-08-19 16:3892310-11-18
795Mistero della cena 21-08-19 16:378406-03-19
796Liberati dal giogo del maleTrappiste di Vitorchiano21-08-19 16:319931-03-19
797Cirano Francesco Guccini21-08-19 16:2120009-11-18
798La Baleniera 21-08-19 16:2122730-01-19
799Di più21-08-19 16:0517931-10-18
800Come è bello come è dolce21-08-19 15:5651717-08-17
801O Maria nostra speranza 21-08-19 15:4842217-09-18
802Lied der Deutschen (Inno nazionale Germania) 21-08-19 15:4617306-07-18
803Salve Reina21-08-19 15:4417007-09-16
804Poema degli occhi 21-08-19 15:4113431-05-18
805Sorella provvidenza - Forza Venite Gente21-08-19 15:4014407-01-19
806Vent'anni 21-08-19 15:2519428-06-18
807Alma Redemptoris mater21-08-19 14:4929007-09-16
808Senza averti qui 88321-08-19 14:487105-02-19
809Centro di gravità permanenteFranco Battiato21-08-19 14:4712221-05-19
810Caravan petrol 21-08-19 14:4314505-07-18
811Down by the Sally Gardens21-08-19 14:404429-04-19
812Give me Jesus 21-08-19 14:3921023-01-19
813L'anima mia ha sete del Dio viv. (messa)21-08-19 14:3216507-09-16
814La notte vola 21-08-19 14:246318-01-19
815Cantate Domino 21-08-19 14:2143604-07-18
816In cil’ e jè une stele21-08-19 14:104310-05-19
817Clamabat autem mulier - A. Mudarra21-08-19 14:1014507-09-16
818Profezia Marina Valmaggi21-08-19 14:065730-01-19
819Il crociatoClaudio Chieffo21-08-19 14:0512410-11-18
820Dove andrò21-08-19 13:5625216-04-18
821Fisherman's Dream21-08-19 13:5516915-04-19
822Il fariseoClaudio Chieffo21-08-19 13:4713710-11-18
823Firenze -Canzone Triste Ivan Graziani21-08-19 13:3310027-01-19
824Rorate coeli desuper21-08-19 13:2863707-09-16
825The Story 21-08-19 13:2515311-06-18
826La Bella Tartaruga 21-08-19 13:1619011-01-19
827VienteClaudio Chieffo21-08-19 13:1012610-11-18
828Purificami o Signore 21-08-19 13:0830306-03-19
829In God's HandsNelly Furtado21-08-19 12:525717-03-19
830Estrella del mar21-08-19 12:5017419-04-18
831El Cóndor Pasa 21-08-19 12:4919216-05-18
832Mary had a Baby, Yes, Lord21-08-19 12:4716907-09-16
833E mi la donna bionda 21-08-19 12:2715509-07-18
834Maremma amara 21-08-19 12:1210305-02-19
835Buonanotte fiorellino (F.De Gregori)21-08-19 11:5534607-09-16
836Didn't my Lord deliver Daniel21-08-19 11:3513407-09-16
837O Jesu mi dolcissime!21-08-19 11:1866807-09-16
838L'isola che non c'èEdoardo Bennato21-08-19 11:034730-04-19
839I Migliori Anni Della Nostra Vita 21-08-19 10:4418228-06-18
840Ah io vorrei tornare 21-08-19 10:4118430-05-18
841Canzone dei piccoli passiClaudio Chieffo21-08-19 10:2916810-11-18
842Sei tu Signore il pane21-08-19 10:1629807-09-16
843La leggenda della Grigna 21-08-19 10:1520405-07-18
844Come My Way, My Truth, My Life21-08-19 10:1167923-05-19
845Fa mal ai pè 21-08-19 10:0214707-07-18
846Sinfonia sull'Ararat21-08-19 09:5936407-09-16
847Father and Son 21-08-19 09:4316828-06-18
848Ciascun ke fede senteLaudario di Cortona21-08-19 09:355329-03-19
849Salmo 129 - Io metto la speranza nel Signor21-08-19 09:2442707-09-16
850Non sono una signora 21-08-19 09:0913905-07-18
851Meraviglioso 21-08-19 09:028123-01-19
852Bí thusa ’mo shúile (Be Thou my vision) 21-08-19 08:5815524-09-18
853Pintinho Piu21-08-19 08:3618710-05-18
854Sequenza di Santa EulaliaClaudio Chieffo21-08-19 08:3512810-11-18
855Heidi 21-08-19 08:3116415-07-18
856Tu mi guardi dalla croce21-08-19 08:2327507-09-16
857When the saints Rit21-08-19 07:5313317-08-17
858Magnum nomine Domini21-08-19 07:5224307-09-16
859Valsugana21-08-19 06:4029613-04-18
860Il Cammello Asteres21-08-19 06:256930-01-19
861L'Uomo Tigre21-08-19 06:225903-06-19
862Mi ricorderò Stefano Pianori21-08-19 06:2219006-03-19
863Innalzate nei cieli lo sguardo21-08-19 06:1676307-09-16
864Vocazione 21-08-19 06:0447425-11-18
865Judongo ceke 21-08-19 06:0232724-09-18
866Liberi...Liberi21-08-19 06:0026703-05-18
867Fami cantar l’amor di la beata Laudario di Cortona21-08-19 05:557503-03-19
868Le Cose Che Penso 21-08-19 05:3711622-08-18
869Posso dire amore a tutti - Forza Venite Gente21-08-19 05:3712107-01-19
870Inno (tamagnini, je)21-08-19 05:3213107-09-16
871He aquí la sierva del Señor, hágase en mí según tu palabra - GMG 2019 21-08-19 05:2937421-05-18
872Preghiera del mattino Ti Adoro del mattino21-08-19 05:1718607-09-16
873Exaudi Domine 21-08-19 05:1023323-01-19
874I Folletti 21-08-19 04:546431-01-19
875Vitti na crozza21-08-19 04:2914707-09-16
876Pater Noster21-08-19 04:2615607-09-16
877Monte Cauriol21-08-19 04:245610-05-19
878Cime nevose21-08-19 04:18319-08-19
879Zachée21-08-19 04:1155216-04-18
880Allo spuntar dell’alba21-08-19 03:47419-08-19
881Splendens ceptigeraLlibre Vermell de Montserrat21-08-19 03:444012-06-19
882I gestiClaudio Chieffo21-08-19 03:4216010-11-18
883La Prima Cosa Bella21-08-19 03:3927710-04-19
884Non vogliamo più la guerra21-08-19 03:31419-08-19
885Mare nostre 21-08-19 03:1773705-07-18
886La Virgen de Guadalupe21-08-19 03:0327010-05-18
887O Magnum Mysterium21-08-19 02:5821407-09-16
888Dove sei stato mio bell’alpino? 21-08-19 02:5812605-07-18
889Canzone degli uomini liberiClaudio Chieffo21-08-19 02:3122510-11-18
890Love of My Life Freddie Mercury21-08-19 02:3112106-03-19
891Dal profondo21-08-19 02:2746609-05-18
892Noi canteremo21-08-19 02:2721307-09-16
893Quel mazzolin di fiori 21-08-19 02:1615005-07-18
894Sulla collinaClaudio Chieffo21-08-19 01:3313810-11-18
895Monte Nero21-08-19 01:005310-05-19
896Com’è bello 21-08-19 00:4214517-09-18
897La nuova AuschwitzClaudio Chieffo21-08-19 00:3817210-11-18
898Il canto dell'esploratoreJohn Ronald Reuel Tolkien21-08-19 00:274210-05-19
899He is hereClaudio Chieffo21-08-19 00:2315310-11-18
900T’adoriam ostia divina 21-08-19 00:2235117-09-18
901Ave o Vergine21-08-19 00:127925-06-19
902Dove troveremo tutto il pane? 20-08-19 23:559530-01-19
903Canzone per FrancescoClaudio Chieffo20-08-19 23:1814310-11-18
904Liberazione n. 1Claudio Chieffo20-08-19 23:1315110-11-18
905Sweet Home Alabama Lynyrd Skynyrd20-08-19 23:067321-02-19
906L'anno che verràLucio Dalla20-08-19 23:065810-04-19
907Un'avventura Lucio Battisti20-08-19 23:005403-03-19
908Volete andarvene anche voi?Claudio Chieffo20-08-19 22:4114210-11-18
909Bohemian Rhapsody 20-08-19 22:3419909-11-18
910I cieliClaudio Chieffo20-08-19 22:3120610-11-18
911Il viaggioClaudio Chieffo20-08-19 22:3024510-11-18
912Il rancio 20-08-19 22:2911609-07-18
913Oimè lasso e freddo lo mio coreLaudario di Cortona20-08-19 22:295829-03-19
914C'ereno tre sorelle20-08-19 22:2229909-04-19
915Early in the Morning 20-08-19 22:1152805-06-18
916Man Come Into Egypt Peter, Paul & Mary20-08-19 22:0914123-03-19
917You 20-08-19 22:0025330-05-18
918Monte Canino20-08-19 21:5836413-04-18
919Per Te solo è chiara la notteTrappiste di Vitorchiano20-08-19 21:5239001-04-19
920Abraham A.M. Cocagnac20-08-19 21:489223-01-19
921Jesus Queen20-08-19 21:337628-01-19
922Volare20-08-19 21:3014607-09-16
923RitornoClaudio Chieffo20-08-19 21:0513010-11-18
924Resta con noi20-08-19 21:0519707-09-16
925La casaClaudio Chieffo20-08-19 20:5613910-11-18
926E verrà20-08-19 20:4925531-10-18
927Stomme allegro et latiosoLaudario di Cortona20-08-19 20:354327-03-19
928Cantico di Mosè (Deut. 32)20-08-19 20:2655807-09-16
929Dialogo della Visitazione20-08-19 20:2442207-09-16
930La ballata del potere20-08-19 20:0913307-09-16
931Festa Nella Foresta 20-08-19 20:0511030-01-19
932INNO BLU20-08-19 20:0424717-08-17
933Basta con le paroleClaudio Chieffo20-08-19 20:0326310-11-18
934Gracias a la vida 20-08-19 20:0314623-01-19
935Banana Cocco Baobab 20-08-19 20:0172130-05-18
936Se non ci fosse la luna20-08-19 20:0028317-04-18
937Country Roads 20-08-19 19:4913918-02-19
938Bandiera gialla 20-08-19 19:2510424-01-19
939Lu piante de le fòjje20-08-19 19:194124-06-19
940In croceClaudio Chieffo20-08-19 19:1418710-11-18
941Estoy alegre20-08-19 19:0829307-09-16
942VorreiClaudio Chieffo20-08-19 19:0415710-11-18
943A mezzanotte in punto20-08-19 18:5310605-04-19
944Fila, fila20-08-19 18:29814-08-19
945Hotel Supramonte 20-08-19 17:5413921-09-18
946L’amore è come l’ellera20-08-19 17:3835716-08-19
947Volevo un gatto nero20-08-19 16:485804-04-19
948Canto notturno di un pastore errante dell'Asia Giacomo Leopardi20-08-19 16:359710-12-18
949Ti saluto o croce santa 20-08-19 16:228207-03-19
950Tricche Tricche20-08-19 16:1630007-09-16
951Alla Sua Donna Giacomo Leopardi20-08-19 16:158505-02-19
952A casa di Luca20-08-19 16:145519-06-19
953Ogn’om canti novel cantoLaudario di Cortona20-08-19 16:034929-03-19
954L'aviatoreClaudio Chieffo20-08-19 15:3610910-11-18
955Sonho meu20-08-19 15:285430-04-19
956This land is your land 20-08-19 15:2817105-06-18
957Io non sono degnoClaudio Chieffo20-08-19 15:2617110-11-18
958Iam surgit hora tertia Sant’Ambrogio20-08-19 15:2022827-02-19
959Ai preât20-08-19 15:1834716-04-18
960Stella del mattinoClaudio Chieffo20-08-19 15:1727910-11-18
961Madonnina dai riccioli d'oro 20-08-19 15:1317130-05-18
962Whiskey In The Jar20-08-19 14:4429607-09-16
963Eliot: Quattro quartetti20-08-19 14:2928007-09-16
964Salve, salve, virgo pia Laudario di Cortona20-08-19 14:105904-03-19
965Jesus is here to stay 20-08-19 13:5811918-05-18
966Arvì20-08-19 13:554205-07-19
967Impressioni di SettembrePremiata Forneria Marconi20-08-19 13:405614-05-19
968L'arca di Noè20-08-19 13:3141016-04-18
969Torn20-08-19 13:2515107-09-16
970L'internazionale20-08-19 12:529418-04-19
971Canto degli Italiani (Inno di Mameli) 20-08-19 12:3216206-07-18
972Il Signore degli AnelliJohn Ronald Reuel Tolkien20-08-19 12:194510-05-19
973Lodate Dio 20-08-19 11:589417-09-18
974Anima Christi20-08-19 11:4436907-09-16
975TemptationClaudio Chieffo20-08-19 11:3616010-11-18
976Il mondo insieme a te88320-08-19 11:3529507-09-16
977Ballata del potere20-08-19 11:2018207-09-16
978Canto di contrizione20-08-19 10:2131217-08-17
979All along the watchtower Bob Dylan20-08-19 10:208030-01-19
980Era una notte che pioveva20-08-19 10:1111316-07-19
981La Casa in Riva al Mare20-08-19 10:0421010-05-18
982L'amicoClaudio Chieffo20-08-19 10:0415710-11-18
983Il grillo e la formica 20-08-19 10:0314031-01-19
984In libertà ti lascio 20-08-19 09:457008-02-19
985Mattone su mattone20-08-19 09:2819217-08-17
986Na sera 'e maggio 20-08-19 09:2814125-05-18
987Tío caimán20-08-19 09:065429-03-19
988E verrà quel dì di lune 20-08-19 09:0514405-07-18
989Mio Dio, mio Dio, perché mi hai abbandonato? 20-08-19 08:5713121-12-18
990Ran… Ran… 20-08-19 08:276008-02-19
991Adeste fideles20-08-19 08:2560407-09-16
992Tema20-08-19 07:5518017-08-17
993Imperayritz de la ciutat joyosaLlibre Vermell de Montserrat20-08-19 07:4219512-06-19
994Dov’è Carità è Amore 20-08-19 07:317205-02-19
995O mia carissima patriaClaudio Chieffo20-08-19 07:3111410-11-18
996FestivalClaudio Chieffo20-08-19 07:2212610-11-18
997Ho lottato tanto in questo giorno 20-08-19 07:0814130-05-18
998La televisioneClaudio Chieffo20-08-19 06:349010-11-18
999La portaClaudio Chieffo20-08-19 06:2711610-11-18
1000Ninna Nanna a Gesù 20-08-19 05:405731-01-19
1001Avventura e libertà 20-08-19 05:3414430-05-18
1002Gloria in Cielo Asteres20-08-19 05:246231-01-19
1003Virgen Mambisa20-08-19 05:2322930-04-19
1004In Cammino Marina Valmaggi20-08-19 05:135930-01-19
10054 marzo 1943 [Gesù bambino] 20-08-19 04:4026528-06-18
1006Amicus MeusTomás Luis de Victoria20-08-19 04:395722-05-19
1007Quattro amici 20-08-19 04:3623528-11-18
1008María Isabel20-08-19 04:126110-05-19
1009O Maria Dei cella Laudario di Cortona20-08-19 04:056603-03-19
1010Iesù Cristo gloriosoLaudario di Cortona20-08-19 03:5410025-03-19
1011Apparirà20-08-19 03:4342807-09-16
1012Sciur padrun 20-08-19 03:4319730-05-18
1013Le Tue Meraviglie20-08-19 03:366630-05-19
1014Ohi de la Valcamonica20-08-19 03:2220807-09-16
1015El Señor es mi fuerza20-08-19 03:2117916-04-18
1016Un bel dì andando in Francia20-08-19 03:02319-08-19
1017San Jovanni al mond’è natoLaudario di Cortona20-08-19 02:574229-03-19
1018Tu non mi basti mai 20-08-19 02:4318128-06-18
1019Dòna amuròsa20-08-19 02:1414802-11-18
1020Ninna nanna alla rovescia 20-08-19 02:118430-01-19
1021La Cucaracha20-08-19 02:085429-03-19
1022Tranta sold20-08-19 01:303024-06-19
1023È una notte fredda e chiara20-08-19 01:3066516-04-18
1024Benedetta sei tu, Maria 20-08-19 00:577905-02-19
1025La sera dei miracoli 20-08-19 00:5420714-09-18
1026La Paganella 20-08-19 00:5012309-07-18
1027Altissima luce (strofe 1, 2, 4)20-08-19 00:2720207-09-16
1028Gracias por la Amistad 20-08-19 00:247201-03-19
1029Marta, MartaClaudio Chieffo20-08-19 00:1718110-11-18
1030La vie en rose20-08-19 00:166330-04-19
1031Preghiera a Maria - Maria, tu che hai atteso nel silenzio19-08-19 23:5818817-08-17
1032Dall'aurora al tramontoGen Rosso19-08-19 23:475407-04-19
1033Astro del ciel19-08-19 23:2335707-09-16
1034La pesca dell'anello 19-08-19 23:216922-01-19
1035Inno Serpeverde19-08-19 22:4627017-08-17
1036Stava Maria dolente Antonio Lotti19-08-19 22:4362918-02-19
1037Omni die19-08-19 22:4215807-09-16
1038Look at the WorldJohn Rutter19-08-19 22:3910131-05-19
1039Funiculì Funiculà19-08-19 22:3014616-04-18
1040Nel tuo silenzio 19-08-19 21:5213011-05-18
1041Le Prime Cose Marina Valmaggi19-08-19 21:456430-01-19
1042Ave Maria di Rachmaninov19-08-19 21:2525007-09-16
1043Ave, vergene gaudente Laudario di Cortona19-08-19 21:197003-03-19
1044Popoff19-08-19 20:5616917-08-17
1045Mille ragioni 19-08-19 20:107427-01-19
1046Desiderio 'e sole19-08-19 19:564509-04-19
1047Resto con TeGen Verde19-08-19 19:145430-05-19
1048PolorumReginaLlibre Vermell de Montserrat19-08-19 18:434712-06-19
1049Everybody hurtsR.E.M.19-08-19 17:574509-04-19
1050Bambino Divino19-08-19 17:573215-07-19
1051Mère au SauverGuillame le Viniers19-08-19 17:433117-06-19
1052He's got the whole world in His hands 19-08-19 17:3710531-01-19
1053Crocifisso mio Signor 19-08-19 17:3616318-02-19
1054Fiorellin Asteres19-08-19 17:079131-01-19
1055Marijos giesmė 19-08-19 15:3322224-09-18
1056Jhonny bassotto 19-08-19 15:196211-01-19
1057The show must go on Queen19-08-19 14:518328-01-19
1058God holds the future in His hands19-08-19 14:263614-05-19
1059Un austriaco felice 19-08-19 14:2115325-05-18
1060Forever Young19-08-19 14:1822107-09-16
1061Fria claridade Amália Rodrigues19-08-19 14:176205-02-19
1062La me' zita (Sicilia) 19-08-19 14:0815630-05-18
1063Ave Maria - Verbum Panis19-08-19 14:0810812-05-19
1064Due o Più - Gen Rosso 19-08-19 13:2918321-05-18
1065Parlami d’amore, Mariù! 19-08-19 13:2816505-07-18
1066Cario Gesù ti scrivo 19-08-19 13:1618826-06-18
1067Al comando dei nostri ufficiali19-08-19 13:0823311-05-18
1068Povo que lavas no rio Amália Rodrigues19-08-19 13:086805-02-19
1069Symbolum 79Pierangelo Sequeri19-08-19 12:545922-05-19
1070Sólo le pido a Dios19-08-19 11:315803-04-19
1071Mille lire al mese 19-08-19 11:2419005-07-18
1072L’italiano 19-08-19 11:1424528-06-18
1073Fica mal con deus19-08-19 11:1324607-09-16
1074Jesus Christ You are my Life 19-08-19 10:5429021-05-18
1075This little light of mine19-08-19 09:3311016-07-19
1076Dannate Nuvole (Vasco)19-08-19 09:2118307-09-16
1077Popoli tutti 19-08-19 09:0416911-05-18
1078Alba Allegra19-08-19 08:594505-04-19
1079Ciao Amore CiaoLuigi Tenco19-08-19 08:5515518-04-19
1080Miserere19-08-19 08:2321007-09-16
1081Ij dispiasì de noj autri alpin 19-08-19 08:0820609-07-18
1082Maestro Della VocePremiata Forneria Marconi19-08-19 07:573914-05-19
1083Cunctisimus concanentesLlibre Vermell de Montserrat19-08-19 07:273712-06-19
1084In quell’ostia consacrata 19-08-19 07:1121117-09-18
1085Zemljanka 19-08-19 07:0421524-09-18
1086SarajevoClaudio Chieffo19-08-19 07:0311810-11-18
1087FiglioClaudio Chieffo19-08-19 06:3114910-11-18
1088ArgentoClaudio Chieffo19-08-19 06:2418310-11-18
1089Ninna nanna della Val Lagarina 19-08-19 06:0016809-07-18
1090Signore io sono Irish19-08-19 05:3527008-09-16
1091ResurrezioneGen Rosso19-08-19 05:1519607-09-16
1092Anema e core19-08-19 03:4122607-09-16
1093La Tua Assenza 19-08-19 03:3512628-06-18
1094Spiderman 19-08-19 03:346717-01-19
1095Almeno Tu nell’Universo 19-08-19 03:2322011-06-18
1096Brigante se more19-08-19 03:0116617-08-17
1097Perdonami mio SignoreClaudio Chieffo19-08-19 02:4816810-11-18
1098Se m’accogli 19-08-19 02:4710421-05-18
1099Schweizer Psalm (Inno Nazionale Svizzero) Salmo Svizzero 19-08-19 02:0826606-07-18
1100JérusalemA.M. Cocagnac19-08-19 01:5114822-03-19
1101Lasciati FareClaudio Chieffo19-08-19 01:2431410-11-18
1102Canzone Appassiunata 19-08-19 00:5421425-05-18
1103Memorare19-08-19 00:5224517-08-17
1104Vi darò un cuore nuovo 19-08-19 00:0112307-03-19
1105Il pesce rosso 18-08-19 23:536130-01-19
1106Ben è crude le e spietosoLaudario di Cortona18-08-19 23:354423-03-19
1107Bimbe d'Italia18-08-19 23:084018-04-19
1108Il giovane riccoClaudio Chieffo18-08-19 22:4421710-11-18
1109Che fai bela pastora 18-08-19 22:2419609-07-18
1110Sub tuum praesidium 18-08-19 22:1721317-09-18
1111La naveClaudio Chieffo18-08-19 22:1412410-11-18
1112Bertoldino 18-08-19 21:576431-01-19
1113L'ora del Campari 18-08-19 21:5710106-01-19
1114E la vita, la vitaCochi e Renato18-08-19 21:3418210-04-19
1115lo, mammeta e tu 18-08-19 21:2913005-07-18
1116Ciao ragazzi 18-08-19 21:2215105-07-18
1117Bersagliere ha cento penne 18-08-19 21:1433309-07-18
1118Joska la rossa18-08-19 21:1144507-09-16
1119Sfiorisci bel fiore 18-08-19 21:1017628-06-18
1120Bianco Padre 18-08-19 20:4512525-05-18
1121Te voglio bene assaje 18-08-19 19:3815405-07-18
1122Errore di prospettivaClaudio Chieffo18-08-19 19:0215310-11-18
1123Alleluia, O filii et filiae18-08-19 18:0713907-09-16
1124Canzone della tenerezzaClaudio Chieffo18-08-19 17:4817510-11-18
1125Christe cunctorum (versione breve)18-08-19 17:4335207-09-16
1126Il ventoClaudio Chieffo18-08-19 17:4113310-11-18
1127Quelli che ben pensano Frankie HI-NRG MC18-08-19 17:305614-02-19
1128Regina dellu cielo18-08-19 16:4215307-09-16
1129Da mi conforto, Dio18-08-19 16:4217007-09-16
1130Sul ponte di Perati bandiera nera18-08-19 16:073624-06-19
1131DesireClaudio Chieffo18-08-19 16:0015510-11-18
1132Jesu Dulcis Memoria18-08-19 15:5817117-08-17
1133L'amore mi fa molto molto ridere 18-08-19 15:3711628-06-18
1134Essenziale88318-08-19 15:3615907-09-16
1135Cantico dei redenti18-08-19 15:1323107-09-16
1136Sui monti fioccano 18-08-19 14:5917905-07-18
1137Chiesa di Dio, Popolo in Festa 18-08-19 14:556814-02-19
1138Torna!18-08-19 14:296109-04-19
1139Canzone dell'Ideale Claudio Chieffo18-08-19 14:2822206-03-19
1140Tout ça18-08-19 13:3513016-04-18
1141Canzone del ricordoClaudio Chieffo18-08-19 12:5915510-11-18
1142Era una notte d'acqua a catinelle... 18-08-19 12:4216130-05-18
1143Noi vogliam Dio18-08-19 12:1317907-09-16
1144Un'AvventuraLucio Battisti18-08-19 12:1120816-04-18
1145Birjiña maite 18-08-19 12:0913124-09-18
1146Tu sei l'unica donna per me 18-08-19 12:0118828-06-18
1147Blitzkrieg bop 18-08-19 11:5912325-10-18
1148Laudemus VirginemLlibre Vermell de Montserrat18-08-19 11:292512-06-19
1149La sorgenteClaudio Chieffo18-08-19 11:1211810-11-18
1150Capitan Harlock 18-08-19 10:5513309-11-18
1151Maranathà, vieni Signor 18-08-19 10:1212603-12-18
1152Dicitencello vuje18-08-19 10:1215907-09-16
1153Le tue mani 18-08-19 08:4314928-05-18
1154Sanctus18-08-19 08:0417307-09-16
1155Ho un amico grande grande18-08-19 07:0724917-08-17
1156Preghiera - Bright Tomorrows 18-08-19 06:389624-05-18
1157I Wonder (traduzione)18-08-19 06:1913917-08-17
1158Il Testamento del Capitano18-08-19 05:5417419-07-19
1159La dama del FaielRino Cammilleri18-08-19 05:4617014-05-19
1160Annie’s SongJohn Denver18-08-19 05:299013-04-19
1161Ohimè lasso18-08-19 05:1427516-04-18
1162Lugano Addio Ivan Graziani18-08-19 04:4312227-01-19
1163Torero 18-08-19 04:3112905-07-18
1164E la bandiera 18-08-19 04:1613409-07-18
1165Na casa e 'na fenestaClaudio Chieffo18-08-19 04:0916910-11-18
1166Mio fratello che guardi il mondo 18-08-19 03:1613528-06-18
1167Higher Ground (Rasmussen) 18-08-19 01:5712608-05-18
1168La canzone del sole Lucio Battisti18-08-19 01:4410905-03-19
1169Samba per gli animali 18-08-19 00:507831-01-19
1170Sulla Rotta di Cristoforo Colombo 18-08-19 00:0022111-06-18
1171Il cielo toccherò17-08-19 23:3417116-04-18
1172La voce del silenzio 17-08-19 23:156923-01-19
1173Madre de' peccatori17-08-19 23:1214007-09-16
1174Passeggero clandestinoClaudio Chieffo17-08-19 23:0814710-11-18
1175Irish songClaudio Chieffo17-08-19 23:0388410-11-18
1176AndareClaudio Chieffo17-08-19 23:0236510-11-18
1177Azzurro (A.Celentano)17-08-19 23:0121007-09-16
1178Ballata della societàClaudio Chieffo17-08-19 23:0133410-11-18
1179Canto dei Santi InnocentiClaudio Chieffo17-08-19 22:5922910-11-18
1180Canzone dell'appartenenza17-08-19 22:5814807-09-16
1181Mira il tuo popolo17-08-19 22:5719907-09-16
1182Cielito lindo17-08-19 22:5418607-09-16
1183Non Basta Niente (Vasco)17-08-19 22:5323707-09-16
1184Tu ca nun chiagne17-08-19 22:5210507-09-16
1185Guendalina17-08-19 22:5019617-08-17
1186Hope danceClaudio Chieffo17-08-19 22:5015210-11-18
1187Il Frate17-08-19 22:4952526-06-18
1188I musicistiClaudio Chieffo17-08-19 22:4814010-11-18
1189Inno Grifondoro 201617-08-19 22:4823307-09-16
1190Io vagabondo17-08-19 22:4817907-09-16
1191O sacrum convivium17-08-19 22:4815507-09-16
1192Preghiera di papa Francesco per il Giubileo della Misericordia17-08-19 22:4711826-03-19
1193Purísima17-08-19 22:4641016-04-18
1194Quando sarò capace d'amare17-08-19 22:4623516-04-18
1195Quando verraiClaudio Chieffo17-08-19 22:4515210-11-18
1196Quattro InfermieriClaudio Chieffo17-08-19 22:4522510-11-18
1197Rivolti i nostri occhi son lassù17-08-19 22:4529816-04-18
1198Salve17-08-19 22:4418618-04-18
1199You'll Never Walk Alone 17-08-19 22:4424214-05-18
1200Sta in eterno il tuo amor17-08-19 22:4313007-09-16
1201Ta-pum17-08-19 22:4317007-09-16
1202Tammurriata nera17-08-19 22:4213707-09-16
1203Tantum ergo (Perosi)17-08-19 22:4225207-09-16
1204Il Cielo in una stanza 17-08-19 22:4210730-05-18
1205Ascolta il ruscello 17-08-19 22:4112030-05-18
1206San Giusep e la Madona 17-08-19 22:4117330-05-18
1207Cacao meravigliao 17-08-19 22:4116630-05-18
1208PuòStefania Pietrella17-08-19 22:4116511-06-18
1209Il primo giorno di primavera 17-08-19 22:4017328-06-18
1210Fiore di maggio 17-08-19 22:3913328-06-18
1211Nothing but the blood of Jesus 17-08-19 22:3917728-06-18
1212Per averti 17-08-19 22:3926705-07-18
1213Sei rimasta sola 17-08-19 22:3816405-07-18
1214Gran Dio del cielo 17-08-19 22:3617509-07-18
1215Dragostea Din Tei 17-08-19 22:3416115-07-18
1216Santa Chiesa di Dio 17-08-19 22:3228317-09-18
1217La rosa bianca Endrigo17-08-19 22:317608-02-19
1218Ave Regina Caelorum 17-08-19 22:2912014-02-19
1219Il Volo Interrotto Francesco Guccini17-08-19 22:2911009-11-18
1220Il cielo d'Irlanda 17-08-19 22:297418-02-19
1221Dolce sentire 17-08-19 22:287820-02-19
1222E con la cicca in bocca Nanni Svampa17-08-19 22:2811822-11-18
1223Buena fortuna Raphael Gualazzi17-08-19 22:285821-02-19
1224El Minestron Nanni Svampa17-08-19 22:289022-11-18
1225Andate per le strade 17-08-19 22:2817025-11-18
1226Luz Verde 17-08-19 22:2813326-11-18
1227Vieni E Seguimi Gen Rosso17-08-19 22:2812925-11-18
1228Gloire à Dieu 17-08-19 22:286425-02-19
1229Mamma del Cielo 17-08-19 22:288827-11-18
1230O Divina Virgo Flore Laudario di Cortona17-08-19 22:276303-03-19
1231Stava a’ pie’ della croce 17-08-19 22:269921-12-18
1232Accogli, Signore, i nostri doni 17-08-19 22:2612428-12-18
1233Ave, regina gloriosa Laudario di Cortona17-08-19 22:269303-03-19
1234Anche per te Lucio Battisti17-08-19 22:268603-03-19
1235Stella nuova 'n fra la genteLaudario di Cortona17-08-19 22:256223-03-19
1236Plangiamo quel crudel basciarLaudario di Cortona17-08-19 22:257023-03-19
1237Boa Pessoa 17-08-19 22:249115-01-19
1238Faciam laude a tutt’i sanctiLaudario di Cortona17-08-19 22:234829-03-19
1239Non, je ne regrette rien 17-08-19 22:2311523-01-19
1240Viva la pappa col pomodoro 17-08-19 22:237123-01-19
1241Pigro Ivan Graziani17-08-19 22:238027-01-19
1242Radio Londra Ivan Graziani17-08-19 22:235427-01-19
1243Monna Lisa Ivan Graziani17-08-19 22:238027-01-19
1244Quando è nato il Bimbo 17-08-19 22:216631-01-19
1245Estranha forma de vida Amália Rodrigues17-08-19 22:208605-02-19
1246Dio si è fatto come noi 17-08-19 22:206205-02-19
1247Giovane donna 17-08-19 22:198805-02-19
1248La Madonina - Ve saludo Madonina, steme ben17-08-19 22:194709-04-19
1249Over the Rainbow17-08-19 22:184822-05-19
1250Maledetta Primavera17-08-19 22:183910-06-19
1251Los setgoytsLlibre Vermell de Montserrat17-08-19 22:173812-06-19
1252Amor dolce senza pareCodice Magliabechiano17-08-19 22:173017-06-19
1253Chanson de Maisan Luigi IX di Francia17-08-19 22:173617-06-19
1254Reis GloriosGiraut de Bornelh17-08-19 22:174517-06-19
1255ImprovvisoBepi De Marzi17-08-19 22:176124-06-19
1256Odnozvučno gremit kolokol’čik 17-08-19 22:1710924-09-18
1257Spiritu Sancto,dolze amoreLaudario di Cortona17-08-19 22:166325-03-19
1258Abbiamo suonato17-08-19 22:1625830-04-18
1259Barbera e champagne17-08-19 22:1520007-09-16
1260ConfineClaudio Chieffo17-08-19 22:1518310-11-18
1261Couldn't hear nobody prayin'17-08-19 22:1511607-09-16
1262Questo giorno Adriana Mascagni17-08-19 22:145521-02-19
1263GiovanniClaudio Chieffo17-08-19 22:1415410-11-18
1264Illogica Allegria17-08-19 22:1413307-09-16
1265Io e le Cose17-08-19 22:1412407-09-16
1266La bella la va la fosso17-08-19 22:1414707-09-16
1267Madonna santa Maria Laudario di Cortona17-08-19 22:135903-03-19
1268Maria, Maria17-08-19 22:1313507-09-16
1269Martino e l'imperatoreClaudio Chieffo17-08-19 22:1316710-11-18
1270Regina sovrana de gram pietade Laudario di Cortona17-08-19 22:135003-03-19
1271Pange Lingua17-08-19 22:1316407-09-16
1272Swing low, sweet chariot17-08-19 22:1213407-09-16
1273Santa Maria del Cammino17-08-19 22:1221707-09-16
1274Vergene donzella da Dio amata Laudario di Cortona17-08-19 22:124404-03-19
1275Va' pensiero17-08-19 22:1213007-09-16
1276Inno Serpeverde 201617-08-19 22:1118507-09-16
1277L'Attesa 17-08-19 22:1111528-05-18
1278Knockin' on Heaven's Door 17-08-19 22:1014527-06-18
1279Scende la pioggia 17-08-19 22:1014628-06-18
1280Attenti al lupo 17-08-19 22:1012128-06-18
1281Gli anni 17-08-19 22:1014128-06-18
1282Tre passi avanti 17-08-19 22:1015105-07-18
1283Malafemmena 17-08-19 22:0919505-07-18
1284Laudamo la resurrectioneLaudario di Cortona17-08-19 22:094125-03-19
1285La Bomba Imbriaga 17-08-19 22:0916107-07-18
1286Madonna Nera 17-08-19 22:0914515-07-18
1287Tu sole vivo 17-08-19 22:0913517-09-18
1288Chi vole lo mondo despreczareLaudario di Cortona17-08-19 22:095329-03-19
1289La voceClaudio Chieffo17-08-19 22:0915110-11-18
1290Vivere la vita 17-08-19 22:099525-11-18
1291Ti adoro, Redentore 17-08-19 22:0812021-12-18
1292Morire sì, ma non così - Forza Venite Gente17-08-19 22:086607-01-19
1293Un milione di anni fa 17-08-19 22:087711-01-19
1294Ci vuole un fiore Sergio Endrigo17-08-19 22:088311-01-19
1295Wish you Were Here Pink Floyd17-08-19 22:087716-01-19
1296Il cielo è pieno di stelle 17-08-19 22:086931-01-19
1297Oh happy day 17-08-19 22:088023-01-19
1298Om mani peme hum 17-08-19 22:086223-01-19
1299Bridge Over Troubled WaterPaul Simon17-08-19 22:083708-04-19
1300Veni, Sancte Spirítus 17-08-19 22:089823-01-19
1301C’Era Una Volta Un Re 17-08-19 22:087930-01-19
1302Che Mi Dica 17-08-19 22:085630-01-19
1303Il cuore rosso di Maria 17-08-19 22:085405-02-19
1304Meu amor é marinheiro Amália Rodrigues17-08-19 22:075805-02-19
1305Vorrei essere la canzone 17-08-19 22:076105-02-19
1306La Casa - A Casa Vinícius de Moraes17-08-19 22:077108-02-19
1307Vengo anch'io. No tu noEnzo Jannacci17-08-19 22:063810-04-19
1308Early Morning RainGordon Lightfoot17-08-19 22:065828-04-19
1309Sul ponte di Bassano, bandiera nera17-08-19 22:054224-06-19
1310Dami conforto, Dio, et alegranzaLaudario di Cortona17-08-19 22:056823-03-19
1311Storia d’amore 17-08-19 22:0316605-07-18
1312Eram quasi agnus 17-08-19 22:0319118-02-19
1313Alleluia della forza17-08-19 22:0120507-09-16
1314Francisco Alegre 17-08-19 22:008323-01-19
1315Maria Vergine annacannu 17-08-19 21:5918930-05-18
1316La leggenda del Piave 17-08-19 21:5817505-07-18
1317Il Pescatore17-08-19 21:5819107-09-16
1318Paura non ho 17-08-19 21:585814-02-19
1319Canto al Tramonto 17-08-19 21:5711427-11-18
1320Canzone della gratitudineClaudio Chieffo17-08-19 21:5718410-11-18
1321Forza venite gente - Forza Venite Gente17-08-19 21:578607-01-19
1322Oilì, oilà! - tricche tricche, e llariulá...17-08-19 21:576611-04-19
1323Invochiamo la tua presenza 17-08-19 21:5731711-05-18
1324I giardini di MarzoLucio Battisti17-08-19 21:5526607-09-16
1325La Povera Rosetta 17-08-19 21:5513725-05-18
1326Fatti mandare dalla mamma Gianni Morandi17-08-19 21:557824-01-19
1327Venite, Adoriamo 17-08-19 21:546205-02-19
1328Beato chi abita la tua casa17-08-19 21:5315507-09-16
1329Preghiera del padreL. de Grandmaison17-08-19 21:538701-04-19
1330L'uomo cattivoClaudio Chieffo17-08-19 21:5212410-11-18
1331La Dosolina17-08-19 21:5219413-04-18
1332Tu Scendi Dalle Stelle17-08-19 21:5132507-09-16
1333Salve Caput Cruentatum17-08-19 21:5124217-04-18
1334Omne homo ad alta voce17-08-19 21:5126407-09-16
1335The Sun Mary Oliver17-08-19 21:506222-01-19
1336Santa Lucia lontana 17-08-19 21:497628-11-18
1337Vero amore è Gesù17-08-19 21:4949016-04-18
1338Il piccolo Zaccheo 17-08-19 21:485930-01-19
1339Il pompiere paura non ne ha 17-08-19 21:4820727-11-18
1340Resta qui con noi 17-08-19 21:4722521-05-18
1341Maria lassùBepi De Marzi17-08-19 21:463424-06-19
1342Discendi Santo Spirito17-08-19 21:4424607-09-16
1343Senza Paura 17-08-19 21:446608-02-19
1344La Formichina 17-08-19 21:447030-01-19
1345Il vecchio e il bambino Francesco Guccini17-08-19 21:429409-11-18
1346L'uomo della ferriera17-08-19 21:4122707-09-16
1347The OriginalRoo Panes17-08-19 21:414621-05-19
1348Symbolum 78 - E sono solo un uomoPierangelo Sequeri17-08-19 21:414822-05-19
1349La nuova alleanza 17-08-19 21:3915330-05-18
1350In Chi17-08-19 21:3920107-09-16
1351Inno Vacanza 201717-08-19 21:3812517-08-17
1352Di qua, di là del Piave 17-08-19 21:3714009-07-18